Time;durP1;ratioP1;P1;durP2;ratioP2;P2;SDS_P1;SDS_P2;PMS_P1;PMS_P2;Temp;Humidity;BMP_temperature;BMP_pressure;BME280_temperature;BME280_humidity;BME280_pressure;Samples;Min_cycle;Max_cycle;Signal;HPM_P1;HPM_P2
2022/04/13 00:01:17;;;;;;;2.70;1.60;;;10.40;99.70;;;;;;5009061;28;20608;-65
2022/04/13 00:03:43;;;;;;;4.70;1.80;;;10.30;99.90;;;;;;5009189;28;20191;-66
2022/04/13 00:06:09;;;;;;;4.03;2.37;;;10.30;99.90;;;;;;5010672;28;20222;-65
2022/04/13 00:08:35;;;;;;;7.67;1.80;;;10.30;99.90;;;;;;5013956;28;20885;-64
2022/04/13 00:11:01;;;;;;;2.70;2.10;;;10.30;99.90;;;;;;5008654;28;20444;-63
2022/04/13 00:13:27;;;;;;;4.30;1.83;;;10.30;99.90;;;;;;5005806;28;20210;-63
2022/04/13 00:15:53;;;;;;;4.30;2.10;;;10.20;99.90;;;;;;5008550;28;20209;-67
2022/04/13 00:18:19;;;;;;;3.73;1.60;;;10.30;99.90;;;;;;5008394;28;20429;-67
2022/04/13 00:20:45;;;;;;;6.33;2.03;;;10.30;99.90;;;;;;5002793;28;20488;-66
2022/04/13 00:23:11;;;;;;;7.80;2.20;;;10.20;99.80;;;;;;5008114;28;20286;-65
2022/04/13 00:25:39;;;;;;;4.50;1.93;;;10.20;99.80;;;;;;5008000;28;20461;-67
2022/04/13 00:28:06;;;;;;;3.33;1.60;;;10.20;99.90;;;;;;4995333;28;21329;-65
2022/04/13 00:30:32;;;;;;;4.23;1.63;;;10.20;99.70;;;;;;5009221;28;20463;-67
2022/04/13 00:32:57;;;;;;;3.57;1.53;;;10.20;99.70;;;;;;5006760;28;20476;-67
2022/04/13 00:35:23;;;;;;;3.63;1.80;;;10.20;99.80;;;;;;5007452;28;20458;-67
2022/04/13 00:37:49;;;;;;;2.13;1.07;;;10.20;99.70;;;;;;5007603;28;20203;-67
2022/04/13 00:40:14;;;;;;;7.23;2.07;;;10.20;99.80;;;;;;5006854;28;20191;-66
2022/04/13 00:42:40;;;;;;;6.43;1.53;;;10.20;99.90;;;;;;5007481;28;20424;-67
2022/04/13 00:45:06;;;;;;;6.80;1.53;;;10.20;99.90;;;;;;5012902;28;20662;-66
2022/04/13 00:47:37;;;;;;;3.77;2.00;;;10.10;99.90;;;;;;5011993;28;20194;-64
2022/04/13 00:50:03;;;;;;;4.63;2.30;;;10.10;99.90;;;;;;5008226;28;20811;-63
2022/04/13 00:52:30;;;;;;;4.70;1.63;;;10.00;99.90;;;;;;5007085;28;20474;-65
2022/04/13 00:54:57;;;;;;;7.97;1.73;;;10.00;99.90;;;;;;5007621;28;20211;-67
2022/04/13 00:57:27;;;;;;;8.17;2.20;;;9.90;99.90;;;;;;5006997;28;20437;-65
2022/04/13 00:59:55;;;;;;;4.93;2.23;;;9.90;99.90;;;;;;5006559;28;20529;-66
2022/04/13 01:02:23;;;;;;;8.47;2.10;;;9.90;99.90;;;;;;4985554;28;20532;-66
2022/04/13 01:04:50;;;;;;;6.00;2.00;;;9.80;99.90;;;;;;5007672;28;20497;-67
2022/04/13 01:07:16;;;;;;;5.40;2.40;;;9.80;99.90;;;;;;5013772;28;20496;-65
2022/04/13 01:09:41;;;;;;;3.60;1.70;;;9.70;99.90;;;;;;5006325;28;20434;-65
2022/04/13 01:12:07;;;;;;;2.67;1.33;;;9.70;99.90;;;;;;5006092;28;20199;-66
2022/04/13 01:14:34;;;;;;;5.43;1.63;;;9.70;99.90;;;;;;5007206;28;20697;-67
2022/04/13 01:17:00;;;;;;;6.67;1.90;;;9.60;99.90;;;;;;5008236;28;20619;-66
2022/04/13 01:19:27;;;;;;;5.57;1.77;;;9.60;99.90;;;;;;5006605;28;20449;-67
2022/04/13 01:21:53;;;;;;;5.50;2.40;;;9.50;99.90;;;;;;5007234;28;20547;-64
2022/04/13 01:24:21;;;;;;;3.47;1.50;;;9.50;99.90;;;;;;5008411;28;20462;-66
2022/04/13 01:26:47;;;;;;;7.07;2.43;;;9.40;99.90;;;;;;5008132;28;20492;-65
2022/04/13 01:29:12;;;;;;;4.17;1.40;;;9.40;99.90;;;;;;5006339;28;21087;-67
2022/04/13 01:31:39;;;;;;;3.87;1.43;;;9.30;99.90;;;;;;5007229;28;20186;-66
2022/04/13 01:34:06;;;;;;;2.20;1.10;;;9.30;99.90;;;;;;5008165;28;20229;-66
2022/04/13 01:36:33;;;;;;;5.10;1.90;;;9.30;99.90;;;;;;4990488;28;20812;-66
2022/04/13 01:38:59;;;;;;;3.50;1.63;;;9.20;99.90;;;;;;5010081;28;20434;-65
2022/04/13 01:41:25;;;;;;;3.47;1.73;;;9.20;99.90;;;;;;5006717;28;20472;-67
2022/04/13 01:43:51;;;;;;;3.30;2.07;;;9.20;99.90;;;;;;5007612;28;20921;-66
2022/04/13 01:46:16;;;;;;;4.97;2.20;;;9.10;99.90;;;;;;5006780;28;20221;-66
2022/04/13 01:48:42;;;;;;;9.50;2.60;;;9.10;99.90;;;;;;5005881;28;20201;-67
2022/04/13 01:51:07;;;;;;;5.33;2.03;;;9.00;99.90;;;;;;5006745;28;20190;-67
2022/04/13 01:53:35;;;;;;;3.30;1.67;;;8.90;99.90;;;;;;5006720;28;20682;-66
2022/04/13 01:56:01;;;;;;;4.77;2.33;;;8.90;99.90;;;;;;5006281;28;20196;-67
2022/04/13 01:58:26;;;;;;;4.17;1.83;;;8.90;99.90;;;;;;5005577;28;20440;-67
2022/04/13 02:00:54;;;;;;;6.43;2.20;;;8.90;99.90;;;;;;5006617;28;20430;-67
2022/04/13 02:03:26;;;;;;;3.47;2.30;;;8.90;99.90;;;;;;5006150;28;20851;-66
2022/04/13 02:05:54;;;;;;;3.47;1.80;;;8.80;99.90;;;;;;5011739;28;20989;-66
2022/04/13 02:08:22;;;;;;;6.30;2.03;;;8.80;99.90;;;;;;5001325;28;20497;-67
2022/04/13 02:10:49;;;;;;;6.80;2.00;;;8.70;99.90;;;;;;5006150;28;20496;-67
2022/04/13 02:13:14;;;;;;;3.43;1.60;;;8.70;99.90;;;;;;5005636;28;20466;-65
2022/04/13 02:15:40;;;;;;;7.47;2.20;;;8.70;99.90;;;;;;5005406;28;20457;-66
2022/04/13 02:18:06;;;;;;;4.07;2.10;;;8.60;99.90;;;;;;5006063;28;20622;-66
2022/04/13 02:20:33;;;;;;;3.63;1.63;;;8.60;99.90;;;;;;5005483;28;20468;-67
2022/04/13 02:22:58;;;;;;;3.40;1.50;;;8.60;99.90;;;;;;5005611;28;20583;-66
2022/04/13 02:25:24;;;;;;;5.20;1.87;;;8.60;99.90;;;;;;5011291;28;21238;-66
2022/04/13 02:27:50;;;;;;;3.87;1.80;;;8.60;99.90;;;;;;5010695;28;20198;-66
2022/04/13 02:30:15;;;;;;;7.17;2.40;;;8.50;99.90;;;;;;5006820;28;20833;-66
2022/04/13 02:32:46;;;;;;;3.70;1.57;;;8.50;99.90;;;;;;5001159;28;20222;-65
2022/04/13 02:35:14;;;;;;;10.20;2.30;;;8.50;99.90;;;;;;5007392;28;20285;-66
2022/04/13 02:37:42;;;;;;;4.10;1.73;;;8.50;99.90;;;;;;5002506;28;20536;-66
2022/04/13 02:40:09;;;;;;;2.93;1.70;;;8.50;99.90;;;;;;5005603;28;20430;-67
2022/04/13 02:42:36;;;;;;;5.43;2.10;;;8.40;99.90;;;;;;5005822;28;20422;-66
2022/04/13 02:45:03;;;;;;;6.80;1.90;;;8.40;99.90;;;;;;5006869;28;21119;-66
2022/04/13 02:47:33;;;;;;;3.03;1.60;;;8.40;99.90;;;;;;4991710;28;20460;-66
2022/04/13 02:50:00;;;;;;;6.50;2.33;;;8.40;99.90;;;;;;5004735;28;20464;-66
2022/04/13 02:52:28;;;;;;;3.60;1.60;;;8.40;99.90;;;;;;5005063;28;20481;-65
2022/04/13 02:54:54;;;;;;;4.03;2.00;;;8.30;99.90;;;;;;5005914;28;20532;-66
2022/04/13 02:57:20;;;;;;;4.60;2.57;;;8.40;99.90;;;;;;5004651;28;20954;-65
2022/04/13 02:59:47;;;;;;;2.10;1.30;;;8.30;99.90;;;;;;4998304;28;20430;-67
2022/04/13 03:02:16;;;;;;;4.70;1.80;;;8.30;99.90;;;;;;5003496;28;20647;-67
2022/04/13 03:04:43;;;;;;;3.33;1.93;;;8.20;99.90;;;;;;4999338;28;20477;-66
2022/04/13 03:07:11;;;;;;;4.57;1.43;;;8.20;99.90;;;;;;5013723;28;21187;-66
2022/04/13 03:09:36;;;;;;;3.73;1.80;;;8.20;99.90;;;;;;5006610;28;21202;-67
2022/04/13 03:12:02;;;;;;;3.43;1.60;;;8.20;99.90;;;;;;5004617;28;20453;-66
2022/04/13 03:14:27;;;;;;;2.90;1.70;;;8.10;99.90;;;;;;5007458;28;20213;-67
2022/04/13 03:16:53;;;;;;;3.87;2.27;;;8.10;99.90;;;;;;5010064;28;20631;-65
2022/04/13 03:19:19;;;;;;;4.03;2.00;;;8.10;99.90;;;;;;5007575;28;20188;-67
2022/04/13 03:21:50;;;;;;;6.20;2.30;;;8.10;99.90;;;;;;5004872;28;20264;-66
2022/04/13 03:24:15;;;;;;;8.07;2.47;;;8.10;99.90;;;;;;5005303;28;20222;-66
2022/04/13 03:26:41;;;;;;;4.47;2.40;;;8.00;99.90;;;;;;5013575;28;20438;-66
2022/04/13 03:29:06;;;;;;;39.87;12.07;;;8.00;99.90;;;;;;5006780;28;20202;-67
2022/04/13 03:31:32;;;;;;;47.97;18.10;;;8.00;99.90;;;;;;5002463;28;20199;-66
2022/04/13 03:33:58;;;;;;;42.30;15.40;;;8.00;99.90;;;;;;5002976;28;20222;-65
2022/04/13 03:36:23;;;;;;;42.20;16.60;;;8.00;99.90;;;;;;5006657;28;20202;-64
2022/04/13 03:38:49;;;;;;;39.30;14.97;;;8.00;99.90;;;;;;5003387;28;20186;-64
2022/04/13 03:41:14;;;;;;;41.60;15.70;;;8.00;99.90;;;;;;5005080;28;20293;-65
2022/04/13 03:43:40;;;;;;;33.70;12.80;;;8.00;99.90;;;;;;5005096;28;20201;-64
2022/04/13 03:46:06;;;;;;;20.33;10.20;;;8.00;99.90;;;;;;5006181;28;20225;-64
2022/04/13 03:48:31;;;;;;;27.30;11.50;;;8.00;99.90;;;;;;5006473;28;20270;-67
2022/04/13 03:50:57;;;;;;;16.83;7.87;;;7.90;99.90;;;;;;5005780;28;20195;-64
2022/04/13 03:53:23;;;;;;;20.20;7.10;;;7.90;99.90;;;;;;5007137;28;20659;-64
2022/04/13 03:55:49;;;;;;;12.80;5.70;;;7.90;99.90;;;;;;5004530;28;21004;-63
2022/04/13 03:58:15;;;;;;;16.63;6.67;;;7.90;99.90;;;;;;5004607;28;20437;-64
2022/04/13 04:00:41;;;;;;;16.23;6.87;;;7.80;99.90;;;;;;4993826;28;20194;-64
2022/04/13 04:03:06;;;;;;;19.70;7.00;;;7.80;99.90;;;;;;5004044;28;20445;-64
2022/04/13 04:05:32;;;;;;;12.10;5.17;;;7.70;99.90;;;;;;5009221;28;20260;-64
2022/04/13 04:07:57;;;;;;;18.77;4.43;;;7.70;99.90;;;;;;5000055;28;20318;-66
2022/04/13 04:10:23;;;;;;;8.60;4.10;;;7.70;99.90;;;;;;5004052;28;20749;-66
2022/04/13 04:12:49;;;;;;;8.37;3.40;;;7.70;99.90;;;;;;5005234;28;20221;-65
2022/04/13 04:15:14;;;;;;;6.57;3.07;;;7.60;99.90;;;;;;4998890;28;20628;-65
2022/04/13 04:17:40;;;;;;;9.50;3.63;;;7.60;99.90;;;;;;5007914;28;20210;-64
2022/04/13 04:20:07;;;;;;;7.20;3.00;;;7.60;99.90;;;;;;5004155;28;20195;-64
2022/04/13 04:22:32;;;;;;;3.37;2.30;;;7.60;99.90;;;;;;5004979;28;20643;-65
2022/04/13 04:25:05;;;;;;;5.13;2.50;;;7.60;99.90;;;;;;5007188;28;20466;-63
2022/04/13 04:27:31;;;;;;;6.70;2.33;;;7.60;99.90;;;;;;5007874;28;20195;-65
2022/04/13 04:29:57;;;;;;;7.53;2.20;;;7.50;99.90;;;;;;5002379;28;20493;-64
2022/04/13 04:32:23;;;;;;;5.60;2.37;;;7.50;99.90;;;;;;5004209;28;20223;-65
2022/04/13 04:34:49;;;;;;;4.30;1.87;;;7.50;99.90;;;;;;4985604;28;20214;-64
2022/04/13 04:37:15;;;;;;;4.23;1.90;;;7.50;99.90;;;;;;5000737;28;20438;-65
2022/04/13 04:39:40;;;;;;;4.80;2.40;;;7.40;99.90;;;;;;5005287;28;20191;-63
2022/04/13 04:42:06;;;;;;;6.87;2.87;;;7.40;99.90;;;;;;5002970;28;20183;-64
2022/04/13 04:44:32;;;;;;;3.97;1.60;;;7.40;99.90;;;;;;5004061;28;20262;-65
2022/04/13 04:46:57;;;;;;;3.70;2.03;;;7.30;99.90;;;;;;5004936;28;20525;-65
2022/04/13 04:49:23;;;;;;;3.67;2.00;;;7.30;99.90;;;;;;5005209;28;20589;-65
2022/04/13 04:51:49;;;;;;;6.30;2.17;;;7.30;99.90;;;;;;5004066;28;20183;-64
2022/04/13 04:54:14;;;;;;;4.17;2.40;;;7.30;99.90;;;;;;5001548;28;20243;-63
2022/04/13 04:56:40;;;;;;;4.33;2.20;;;7.30;99.90;;;;;;4988551;28;20194;-62
2022/04/13 04:59:06;;;;;;;6.33;2.20;;;7.30;99.90;;;;;;4989275;28;20191;-63
2022/04/13 05:01:32;;;;;;;6.33;2.30;;;7.30;99.90;;;;;;5006981;28;20248;-63
2022/04/13 05:03:58;;;;;;;8.43;2.00;;;7.30;99.90;;;;;;5005493;28;20746;-65
2022/04/13 05:06:28;;;;;;;10.17;1.93;;;7.30;99.90;;;;;;4988581;28;20446;-64
2022/04/13 05:08:57;;;;;;;3.53;2.33;;;7.30;99.90;;;;;;5000555;28;20199;-65
2022/04/13 05:11:23;;;;;;;3.13;1.50;;;7.30;99.90;;;;;;5005020;28;20840;-63
2022/04/13 05:13:49;;;;;;;4.67;1.70;;;7.40;99.90;;;;;;5003549;28;20551;-63
2022/04/13 05:16:16;;;;;;;2.80;1.67;;;7.40;99.90;;;;;;5005437;28;20211;-65
2022/04/13 05:18:42;;;;;;;5.40;2.57;;;7.40;99.90;;;;;;5008575;28;20509;-64
2022/04/13 05:21:08;;;;;;;4.50;1.80;;;7.50;99.90;;;;;;5006945;28;20572;-65
2022/04/13 05:23:35;;;;;;;6.10;2.50;;;7.50;99.90;;;;;;5005785;28;20434;-66
2022/04/13 05:26:01;;;;;;;8.43;2.10;;;7.60;99.90;;;;;;5009939;28;20666;-67
2022/04/13 05:28:27;;;;;;;6.07;1.80;;;7.60;99.90;;;;;;5006316;28;20952;-66
2022/04/13 05:30:52;;;;;;;4.20;1.87;;;7.70;99.90;;;;;;5005842;28;20458;-65
2022/04/13 05:33:18;;;;;;;6.30;2.73;;;7.80;99.90;;;;;;5006251;28;20211;-66
2022/04/13 05:35:45;;;;;;;6.90;2.20;;;7.80;99.90;;;;;;5014098;28;20198;-66
2022/04/13 05:38:10;;;;;;;3.27;2.10;;;7.90;99.90;;;;;;5008009;28;20248;-65
2022/04/13 05:40:36;;;;;;;7.43;2.40;;;8.00;99.90;;;;;;5007530;28;20429;-66
2022/04/13 05:43:02;;;;;;;10.50;2.90;;;8.10;99.90;;;;;;5006904;28;20183;-66
2022/04/13 05:45:28;;;;;;;3.97;2.27;;;8.20;99.90;;;;;;5016939;28;20222;-66
2022/04/13 05:47:53;;;;;;;3.63;2.40;;;8.30;99.90;;;;;;5009446;28;20257;-66
2022/04/13 05:50:19;;;;;;;3.30;1.90;;;8.40;99.90;;;;;;5005726;28;20229;-66
2022/04/13 05:52:45;;;;;;;5.87;2.60;;;8.40;99.90;;;;;;5010405;28;20293;-66
2022/04/13 05:55:11;;;;;;;3.30;2.17;;;8.50;99.90;;;;;;5007093;28;20203;-66
2022/04/13 05:57:36;;;;;;;4.43;2.70;;;8.60;99.90;;;;;;5006907;28;20225;-66
2022/04/13 06:00:07;;;;;;;4.67;2.30;;;8.70;99.90;;;;;;5013539;28;20948;-66
2022/04/13 06:02:33;;;;;;;3.70;2.20;;;8.80;99.90;;;;;;5008534;28;20186;-66
2022/04/13 06:04:59;;;;;;;5.70;3.00;;;8.90;99.90;;;;;;5014892;28;20507;-65
2022/04/13 06:07:24;;;;;;;6.83;2.30;;;9.00;99.90;;;;;;5006992;28;20522;-65
2022/04/13 06:09:50;;;;;;;5.63;2.07;;;9.20;99.90;;;;;;5006336;28;20514;-65
2022/04/13 06:12:25;;;;;;;4.90;2.30;;;9.30;99.90;;;;;;5004251;28;20928;-66
2022/04/13 06:14:50;;;;;;;7.23;2.43;;;9.50;99.90;;;;;;4999330;28;20862;-66
2022/04/13 06:17:16;;;;;;;5.30;2.43;;;9.60;99.90;;;;;;5004656;28;20418;-66
2022/04/13 06:19:43;;;;;;;8.03;3.00;;;9.80;99.90;;;;;;5003644;28;20845;-66
2022/04/13 06:22:08;;;;;;;5.03;2.30;;;9.90;99.90;;;;;;5005689;28;20509;-68
2022/04/13 06:24:34;;;;;;;6.73;2.53;;;10.10;99.90;;;;;;5005081;28;20529;-65
2022/04/13 06:27:00;;;;;;;6.10;3.07;;;10.10;99.90;;;;;;5006111;28;20191;-65
2022/04/13 06:29:26;;;;;;;7.43;3.70;;;10.20;99.90;;;;;;5012592;28;20252;-65
2022/04/13 06:31:51;;;;;;;6.27;3.43;;;10.30;99.90;;;;;;5014036;28;20179;-66
2022/04/13 06:34:17;;;;;;;7.83;3.63;;;10.40;99.90;;;;;;5011225;28;20210;-65
2022/04/13 06:36:43;;;;;;;3.50;2.30;;;10.50;99.90;;;;;;5008143;28;20245;-65
2022/04/13 06:39:09;;;;;;;6.33;2.63;;;10.50;99.90;;;;;;5005859;28;20187;-65
2022/04/13 06:41:34;;;;;;;5.07;2.27;;;10.70;99.90;;;;;;5006032;28;20229;-65
2022/04/13 06:44:00;;;;;;;6.43;3.27;;;10.90;99.90;;;;;;5006537;28;20546;-66
2022/04/13 06:46:26;;;;;;;3.33;2.10;;;11.10;99.90;;;;;;5006105;28;20202;-65
2022/04/13 06:48:51;;;;;;;5.60;2.33;;;11.20;99.90;;;;;;5005650;28;20188;-65
2022/04/13 06:51:17;;;;;;;8.90;1.93;;;11.40;99.90;;;;;;5006385;28;20214;-66
2022/04/13 06:53:43;;;;;;;6.83;2.93;;;11.50;99.90;;;;;;5006209;28;20211;-63
2022/04/13 06:56:09;;;;;;;5.00;2.37;;;11.70;99.90;;;;;;5007100;28;20824;-66
2022/04/13 06:58:35;;;;;;;4.20;2.40;;;11.90;99.90;;;;;;5021978;28;20194;-66
2022/04/13 07:01:00;;;;;;;4.03;2.30;;;12.10;99.90;;;;;;5005542;28;20555;-64
2022/04/13 07:03:26;;;;;;;7.33;3.10;;;12.20;99.90;;;;;;5012729;28;20279;-66
2022/04/13 07:05:52;;;;;;;5.00;2.17;;;12.30;99.90;;;;;;5006124;28;20682;-66
2022/04/13 07:08:17;;;;;;;5.73;2.20;;;12.50;99.90;;;;;;5004883;28;20318;-66
2022/04/13 07:10:43;;;;;;;3.90;2.13;;;12.60;99.90;;;;;;5007457;28;20640;-65
2022/04/13 07:13:11;;;;;;;3.30;2.20;;;12.80;99.90;;;;;;5005536;28;20247;-66
2022/04/13 07:15:36;;;;;;;3.23;2.03;;;13.10;99.90;;;;;;5005667;28;21011;-66
2022/04/13 07:18:02;;;;;;;3.90;2.17;;;13.50;99.90;;;;;;5006059;28;20422;-66
2022/04/13 07:20:28;;;;;;;4.27;2.40;;;13.80;99.90;;;;;;5004271;28;20186;-67
2022/04/13 07:22:54;;;;;;;3.97;1.80;;;14.20;99.90;;;;;;5007778;28;20179;-67
2022/04/13 07:25:21;;;;;;;6.20;2.63;;;14.60;99.90;;;;;;5011428;28;20213;-65
2022/04/13 07:27:48;;;;;;;4.67;1.80;;;14.90;99.60;;;;;;5005118;28;20521;-67
2022/04/13 07:30:15;;;;;;;6.93;2.27;;;15.50;97.90;;;;;;5004980;28;20460;-67
2022/04/13 07:32:54;;;;;;;6.13;2.00;;;15.70;96.50;;;;;;5005529;28;20480;-67
2022/04/13 07:35:21;;;;;;;3.57;1.87;;;16.40;95.00;;;;;;5005771;28;20864;-66
2022/04/13 07:37:47;;;;;;;4.10;2.33;;;17.00;94.10;;;;;;5004751;28;20496;-66
2022/04/13 07:40:14;;;;;;;6.53;2.40;;;17.40;92.60;;;;;;5005463;28;20430;-66
2022/04/13 07:42:40;;;;;;;3.17;1.70;;;17.90;92.30;;;;;;5005366;28;20430;-66
2022/04/13 07:45:07;;;;;;;4.93;2.17;;;18.30;91.10;;;;;;5009198;28;20445;-66
2022/04/13 07:47:33;;;;;;;6.73;2.30;;;18.50;90.50;;;;;;5008209;28;20438;-67
2022/04/13 07:49:59;;;;;;;13.33;1.97;;;18.60;90.20;;;;;;5004211;28;20436;-65
2022/04/13 07:52:25;;;;;;;4.87;2.00;;;19.10;89.10;;;;;;5005061;28;20179;-65
2022/04/13 07:54:50;;;;;;;6.93;2.47;;;19.50;88.40;;;;;;5005092;28;21193;-67
2022/04/13 07:57:16;;;;;;;4.07;1.87;;;20.10;84.90;;;;;;5005104;28;20928;-66
2022/04/13 07:59:42;;;;;;;6.93;2.23;;;20.40;82.80;;;;;;5009323;28;20178;-65
2022/04/13 08:02:08;;;;;;;4.10;1.67;;;20.60;81.80;;;;;;5017345;28;20213;-66
2022/04/13 08:04:35;;;;;;;5.60;2.03;;;20.50;81.10;;;;;;5013038;28;20443;-67
2022/04/13 08:07:01;;;;;;;3.73;1.63;;;20.10;82.50;;;;;;5008614;28;20848;-66
2022/04/13 08:09:26;;;;;;;4.43;1.70;;;20.30;83.00;;;;;;5003975;28;20512;-67
2022/04/13 08:11:52;;;;;;;4.73;1.53;;;20.40;80.30;;;;;;5009438;28;20445;-66
2022/04/13 08:14:22;;;;;;;6.33;2.67;;;20.60;79.60;;;;;;5004029;28;20218;-66
2022/04/13 08:16:48;;;;;;;3.40;1.70;;;20.80;81.90;;;;;;5013503;28;20210;-67
2022/04/13 08:19:14;;;;;;;3.03;1.73;;;20.90;77.20;;;;;;5011839;28;20492;-65
2022/04/13 08:21:39;;;;;;;4.03;2.27;;;20.90;76.80;;;;;;4998856;28;20491;-67
2022/04/13 08:24:05;;;;;;;3.77;1.70;;;20.80;76.20;;;;;;5015557;28;20635;-67
2022/04/13 08:26:31;;;;;;;3.20;1.50;;;21.10;75.40;;;;;;5008912;28;20186;-67
2022/04/13 08:28:57;;;;;;;6.97;1.90;;;21.60;73.60;;;;;;5007839;28;20186;-66
2022/04/13 08:31:23;;;;;;;9.53;2.03;;;21.30;73.20;;;;;;5013637;28;20197;-67
2022/04/13 08:33:48;;;;;;;5.33;1.40;;;21.20;73.50;;;;;;5008537;28;20222;-66
2022/04/13 08:36:14;;;;;;;3.40;1.70;;;21.40;73.10;;;;;;5014023;28;20213;-67
2022/04/13 08:38:40;;;;;;;3.53;1.70;;;21.50;73.80;;;;;;5003525;28;20186;-67
2022/04/13 08:41:36;;;;;;;2.73;1.60;;;21.40;73.70;;;;;;5014808;28;20191;-66
2022/04/13 08:44:14;;;;;;;4.30;1.13;;;21.60;71.90;;;;;;5003113;28;20468;-65
2022/04/13 08:46:42;;;;;;;4.80;1.40;;;21.70;71.10;;;;;;5007309;28;20644;-65
2022/04/13 08:49:09;;;;;;;2.90;1.10;;;21.70;70.00;;;;;;5007366;28;20433;-65
2022/04/13 08:51:36;;;;;;;3.40;1.60;;;22.00;69.80;;;;;;5008674;28;20425;-65
2022/04/13 08:54:10;;;;;;;1.70;0.90;;;22.60;67.20;;;;;;5007589;28;20542;-64
2022/04/13 08:56:39;;;;;;;3.47;1.40;;;22.50;66.00;;;;;;5008210;28;20421;-63
2022/04/13 08:59:07;;;;;;;4.13;1.80;;;22.40;66.30;;;;;;5007445;28;20435;-66
2022/04/13 09:02:03;;;;;;;2.63;1.40;;;21.90;68.30;;;;;;5008721;28;20433;-65
2022/04/13 09:04:32;;;;;;;4.43;1.50;;;22.00;67.50;;;;;;5014188;28;20456;-64
2022/04/13 09:07:00;;;;;;;8.37;1.60;;;21.90;68.30;;;;;;5002026;28;20836;-65
2022/04/13 09:09:34;;;;;;;2.90;1.57;;;22.10;69.10;;;;;;5006804;28;20421;-64
2022/04/13 09:12:01;;;;;;;3.10;1.40;;;22.10;67.90;;;;;;5013237;28;20746;-66
2022/04/13 09:14:29;;;;;;;6.80;1.57;;;22.20;69.20;;;;;;5007596;28;20531;-65
2022/04/13 09:16:55;;;;;;;3.87;1.50;;;21.90;66.70;;;;;;5008048;28;20422;-65
2022/04/13 09:19:24;;;;;;;4.57;1.83;;;22.00;68.10;;;;;;5005810;28;20430;-65
2022/04/13 09:21:51;;;;;;;4.00;1.60;;;22.70;67.60;;;;;;5008128;28;20435;-65
2022/04/13 09:24:18;;;;;;;6.60;1.70;;;23.20;65.20;;;;;;5006935;28;20904;-65
2022/04/13 09:26:45;;;;;;;2.73;1.20;;;22.80;66.80;;;;;;5007548;28;20424;-64
2022/04/13 09:29:12;;;;;;;3.30;1.40;;;22.90;66.50;;;;;;5000846;28;20425;-64
2022/04/13 09:31:38;;;;;;;3.23;1.23;;;22.40;67.90;;;;;;5001964;28;20544;-65
2022/04/13 09:34:03;;;;;;;2.80;1.33;;;22.10;67.30;;;;;;4996677;28;21491;-65
2022/04/13 09:36:29;;;;;;;2.80;1.33;;;22.20;66.10;;;;;;5005385;28;20457;-65
2022/04/13 09:38:56;;;;;;;2.67;1.20;;;22.40;67.80;;;;;;5001242;28;20182;-64
2022/04/13 09:41:36;;;;;;;3.57;1.80;;;22.50;67.40;;;;;;5006851;28;20187;-67
2022/04/13 09:44:11;;;;;;;2.57;0.90;;;22.60;67.70;;;;;;5004831;28;20256;-63
2022/04/13 09:46:37;;;;;;;5.60;1.60;;;22.40;66.00;;;;;;5005189;28;20451;-66
2022/04/13 09:49:15;;;;;;;2.87;1.43;;;22.20;67.50;;;;;;5005823;28;20422;-66
2022/04/13 09:51:48;;;;;;;2.60;1.20;;;22.00;67.00;;;;;;5008784;28;20418;-65
2022/04/13 09:54:14;;;;;;;3.77;1.53;;;22.50;66.40;;;;;;5000255;28;20458;-65
2022/04/13 09:56:47;;;;;;;5.67;1.23;;;22.70;64.40;;;;;;5005720;28;20437;-63
2022/04/13 09:59:29;;;;;;;4.90;1.83;;;22.50;65.90;;;;;;5005253;28;20190;-65
2022/04/13 10:01:55;;;;;;;7.80;1.70;;;22.40;65.40;;;;;;5004900;28;20429;-67
2022/04/13 10:04:29;;;;;;;7.90;1.53;;;22.10;66.30;;;;;;5004926;28;20480;-67
2022/04/13 10:06:55;;;;;;;4.40;1.10;;;22.30;66.20;;;;;;5005637;28;20816;-68
2022/04/13 10:09:23;;;;;;;4.00;1.40;;;22.60;64.90;;;;;;5004552;28;20468;-66
2022/04/13 10:12:03;;;;;;;14.57;1.40;;;22.20;64.30;;;;;;5005582;28;21010;-67
2022/04/13 10:14:29;;;;;;;5.80;1.53;;;22.00;66.30;;;;;;5004363;28;20453;-67
2022/04/13 10:17:08;;;;;;;15.87;2.13;;;21.80;64.00;;;;;;5013060;28;20460;-66
2022/04/13 10:19:35;;;;;;;2.73;0.90;;;21.70;67.80;;;;;;5003199;28;20451;-63
2022/04/13 10:22:01;;;;;;;5.73;1.00;;;22.00;66.20;;;;;;5007205;28;20988;-65
2022/04/13 10:24:27;;;;;;;6.30;1.30;;;22.20;65.20;;;;;;5013927;28;20465;-64
2022/04/13 10:27:07;;;;;;;2.17;1.20;;;22.60;62.40;;;;;;5015273;28;21312;-65
2022/04/13 10:29:41;;;;;;;4.20;1.50;;;22.60;60.90;;;;;;5005537;28;20205;-65
2022/04/13 10:32:12;;;;;;;3.13;0.90;;;22.40;62.50;;;;;;4988899;28;20490;-65
2022/04/13 10:34:50;;;;;;;13.40;2.30;;;22.30;63.20;;;;;;5005586;28;20556;-64
2022/04/13 10:37:18;;;;;;;3.50;1.10;;;22.40;61.90;;;;;;5010188;28;20569;-66
2022/04/13 10:39:46;;;;;;;7.23;1.63;;;22.60;62.50;;;;;;5003796;28;20437;-65
2022/04/13 10:42:16;;;;;;;2.60;1.10;;;22.50;62.30;;;;;;5009599;28;20436;-67
2022/04/13 10:45:03;;;;;;;4.27;1.23;;;22.40;61.80;;;;;;5013526;28;20477;-67
2022/04/13 10:47:52;;;;;;;4.40;1.20;;;22.60;64.50;;;;;;4998938;28;20437;-67
2022/04/13 10:50:47;;;;;;;4.43;1.57;;;22.30;60.40;;;;;;5002419;28;20434;-65
2022/04/13 10:53:29;;;;;;;2.70;1.10;;;22.40;60.90;;;;;;4998537;28;20449;-64
2022/04/13 10:56:05;;;;;;;18.37;1.40;;;22.60;58.50;;;;;;5012328;28;20559;-65
2022/04/13 10:59:06;;;;;;;8.70;2.20;;;22.60;61.20;;;;;;4986410;28;20979;-64
2022/04/13 11:01:45;;;;;;;2.27;0.80;;;22.60;59.30;;;;;;5000375;28;20482;-65
2022/04/13 11:04:12;;;;;;;6.53;1.10;;;22.50;61.20;;;;;;5004307;28;20863;-65
2022/04/13 11:06:40;;;;;;;5.90;1.17;;;22.50;59.50;;;;;;5005363;28;20445;-65
2022/04/13 11:09:15;;;;;;;8.10;0.90;;;22.50;59.40;;;;;;5003978;28;20480;-65
2022/04/13 11:11:43;;;;;;;2.73;1.13;;;22.50;60.40;;;;;;5002871;28;20959;-67
2022/04/13 11:14:20;;;;;;;3.00;1.37;;;22.70;59.90;;;;;;5004429;28;20460;-64
2022/04/13 11:16:46;;;;;;;3.50;1.50;;;22.80;58.30;;;;;;5005181;28;20534;-63
2022/04/13 11:19:11;;;;;;;1.97;0.90;;;22.80;59.10;;;;;;5003332;28;20441;-63
2022/04/13 11:21:52;;;;;;;2.70;1.33;;;22.70;60.00;;;;;;5004623;28;20456;-65
2022/04/13 11:24:34;;;;;;;6.50;1.30;;;22.70;59.60;;;;;;5004649;28;20241;-64
2022/04/13 11:27:00;;;;;;;2.23;1.00;;;22.90;57.90;;;;;;5006227;28;20910;-64
2022/04/13 11:29:33;;;;;;;3.30;1.20;;;23.10;56.80;;;;;;5011031;28;20438;-64
2022/04/13 11:32:05;;;;;;;6.70;1.27;;;23.10;57.70;;;;;;5008822;28;20428;-67
2022/04/13 11:34:42;;;;;;;2.10;0.90;;;23.20;59.40;;;;;;5005247;28;20445;-67
2022/04/13 11:37:15;;;;;;;5.37;2.00;;;23.10;59.00;;;;;;5001301;28;20983;-65
2022/04/13 11:39:44;;;;;;;5.07;1.63;;;23.30;59.90;;;;;;5001699;28;20846;-65
2022/04/13 11:42:26;;;;;;;4.80;1.20;;;23.30;57.40;;;;;;5001657;28;20439;-63
2022/04/13 11:44:51;;;;;;;7.57;0.90;;;23.40;57.40;;;;;;5005348;28;21031;-65
2022/04/13 11:47:19;;;;;;;3.20;1.10;;;23.70;56.50;;;;;;4991119;28;20532;-63
2022/04/13 11:49:56;;;;;;;4.00;1.60;;;23.50;57.90;;;;;;5007266;28;20842;-63
2022/04/13 11:52:52;;;;;;;4.63;1.57;;;23.40;59.20;;;;;;5012515;28;20424;-64
2022/04/13 11:55:18;;;;;;;2.40;1.20;;;23.50;58.80;;;;;;5009565;28;20468;-63
2022/04/13 11:58:04;;;;;;;8.43;1.83;;;23.50;56.40;;;;;;5013391;28;20433;-65
2022/04/13 12:00:39;;;;;;;2.40;1.37;;;23.60;56.50;;;;;;5016709;28;20817;-66
2022/04/13 12:03:08;;;;;;;3.80;1.40;;;23.70;55.80;;;;;;5017868;28;20979;-65
2022/04/13 12:05:36;;;;;;;3.70;1.30;;;23.50;56.40;;;;;;5014592;28;20435;-64
2022/04/13 12:08:01;;;;;;;14.90;2.60;;;23.50;56.90;;;;;;5016441;28;20424;-64
2022/04/13 12:10:35;;;;;;;4.53;1.23;;;23.40;54.50;;;;;;5016272;28;20759;-64
2022/04/13 12:13:03;;;;;;;5.00;1.33;;;23.30;54.80;;;;;;5012407;28;20216;-63
2022/04/13 12:15:44;;;;;;;5.90;1.40;;;23.30;56.30;;;;;;5016476;28;20437;-63
2022/04/13 12:18:10;;;;;;;4.97;1.50;;;23.50;55.40;;;;;;5015686;28;20448;-64
2022/04/13 12:20:36;;;;;;;5.40;1.20;;;23.60;53.80;;;;;;5016847;28;20429;-65
2022/04/13 12:23:16;;;;;;;2.20;1.10;;;23.70;54.20;;;;;;5017315;28;20991;-64
2022/04/13 12:25:46;;;;;;;4.60;1.57;;;23.80;55.20;;;;;;5014848;28;20449;-65
2022/04/13 12:28:11;;;;;;;3.50;1.50;;;23.70;55.20;;;;;;5012137;28;20980;-62
2022/04/13 12:30:38;;;;;;;5.33;1.30;;;23.90;54.40;;;;;;5018358;28;20413;-64
2022/04/13 12:33:23;;;;;;;4.27;1.43;;;24.00;54.80;;;;;;5013755;28;20182;-66
2022/04/13 12:35:56;;;;;;;4.20;1.30;;;24.20;55.10;;;;;;5016770;28;20441;-68
2022/04/13 12:38:24;;;;;;;6.63;1.60;;;24.20;54.30;;;;;;5012004;28;20445;-66
2022/04/13 12:41:01;;;;;;;4.60;1.60;;;24.40;53.30;;;;;;5014594;28;20455;-64
2022/04/13 12:43:27;;;;;;;2.50;1.50;;;24.40;53.10;;;;;;5002850;28;20455;-65
2022/04/13 12:45:53;;;;;;;2.23;0.87;;;24.60;52.20;;;;;;4997364;28;20559;-65
2022/04/13 12:48:27;;;;;;;2.67;0.97;;;24.60;52.50;;;;;;5006610;28;20449;-65
2022/04/13 12:50:56;;;;;;;2.73;1.10;;;24.40;51.50;;;;;;4998989;28;20839;-64
2022/04/13 12:53:22;;;;;;;3.37;1.30;;;24.10;52.40;;;;;;5007969;28;20432;-64
2022/04/13 12:55:56;;;;;;;4.80;1.63;;;24.20;53.80;;;;;;5007701;28;20478;-64